Airfield :
LOGIN :

Register | Disclaimer

   EN    FR    IT 

 










Legend :    VFR   Marginal VFR   IFR   Intensive IFR   Very Intensive IFR
Visi :
Ceiling :
>= 8 km
>= 3000ft
5 to 8 km
1000 to 3000 ft
1500m to 5 km
500 to 1000 ft
800 to 1500m
200 to 500 ft
< 800m
< 200 ft
Symbols :   Thunderstorms  Fog  Heavy snow  Heavy precipitations  Wind > 20 kt
SIGMETs :     Misc.  Thunderstorms  Icing  Turbulence  Mountain Waves  Volcanic Ashes






- Airport Elevation : 36 ft
- IATA code : LTQ


LFAT - Le Touquet

CURRENT METAR :
  • 011330Z AUTO 08008KT CAVOK 08/03 Q1027 NOSIG

EXPIRED METARs :
  • 011300Z AUTO 09009KT CAVOK 08/04 Q1027 NOSIG
  • 011230Z AUTO 07006KT 040V100 CAVOK 08/04 Q1028 NOSIG
  • 011200Z AUTO 09008KT CAVOK 08/04 Q1028 NOSIG
  • 011130Z AUTO 08007KT 040V120 CAVOK 08/05 Q1028 NOSIG
  • 011100Z AUTO 07007KT CAVOK 07/05 Q1028 NOSIG

TAF TAF LFAT
Valid from the 01 at 12:00 until the 01 at 21:00 UTC


011100Z 0112/0121 07007KT CAVOK
ATIS : +33 3 21 06 62 84



MET'MAP, your aeronautical weather chart ! - Copyright ORBIFLY December 2007 - Disclaimer

ORBIFLY MET'MAP TEAM :

Programming & Development : Alexandra Zaïnal
Original concept : Baudouin d'Aumeries
Technical & hardware support : Manuel Goepfert
Assistance : Marc-Olivier Méhu




SOURCES & CREDITS :

   NOAA